sensor_id;sensor_type;location;lat;lon;timestamp;temperature;humidity
21944;DHT22;11136;48.778;9.126;2022-09-09T00:00:13;17.60;91.20
21944;DHT22;11136;48.778;9.126;2022-09-09T00:02:42;17.70;91.20
21944;DHT22;11136;48.778;9.126;2022-09-09T00:07:55;17.70;91.20
21944;DHT22;11136;48.778;9.126;2022-09-09T00:10:37;17.70;91.20
21944;DHT22;11136;48.778;9.126;2022-09-09T00:13:22;17.70;91.30
21944;DHT22;11136;48.778;9.126;2022-09-09T00:16:22;17.70;91.40
21944;DHT22;11136;48.778;9.126;2022-09-09T00:19:06;17.60;91.40
21944;DHT22;11136;48.778;9.126;2022-09-09T00:21:37;17.60;91.40
21944;DHT22;11136;48.778;9.126;2022-09-09T00:26:55;17.60;91.50
21944;DHT22;11136;48.778;9.126;2022-09-09T00:29:32;17.50;91.50
21944;DHT22;11136;48.778;9.126;2022-09-09T00:32:09;17.50;91.60
21944;DHT22;11136;48.778;9.126;2022-09-09T00:34:38;17.60;91.70
21944;DHT22;11136;48.778;9.126;2022-09-09T00:37:05;17.50;91.70
21944;DHT22;11136;48.778;9.126;2022-09-09T00:39:42;17.50;91.70
21944;DHT22;11136;48.778;9.126;2022-09-09T00:47:21;17.50;91.80
21944;DHT22;11136;48.778;9.126;2022-09-09T00:50:37;17.50;91.80
21944;DHT22;11136;48.778;9.126;2022-09-09T00:56:12;17.50;91.80
21944;DHT22;11136;48.778;9.126;2022-09-09T00:58:43;17.50;91.80
21944;DHT22;11136;48.778;9.126;2022-09-09T01:01:13;17.50;91.80
21944;DHT22;11136;48.778;9.126;2022-09-09T01:03:53;17.50;91.80
21944;DHT22;11136;48.778;9.126;2022-09-09T01:06:21;17.60;91.80
21944;DHT22;11136;48.778;9.126;2022-09-09T01:11:26;17.60;91.70
21944;DHT22;11136;48.778;9.126;2022-09-09T01:14:27;17.60;91.80
21944;DHT22;11136;48.778;9.126;2022-09-09T01:16:59;17.60;91.70
21944;DHT22;11136;48.778;9.126;2022-09-09T01:19:55;17.60;91.80
21944;DHT22;11136;48.778;9.126;2022-09-09T01:22:36;17.60;91.90
21944;DHT22;11136;48.778;9.126;2022-09-09T01:25:56;17.60;92.00
21944;DHT22;11136;48.778;9.126;2022-09-09T01:28:21;17.70;91.90
21944;DHT22;11136;48.778;9.126;2022-09-09T01:30:48;17.60;91.80
21944;DHT22;11136;48.778;9.126;2022-09-09T01:33:16;17.60;91.80
21944;DHT22;11136;48.778;9.126;2022-09-09T01:35:52;17.60;91.70
21944;DHT22;11136;48.778;9.126;2022-09-09T01:38:22;17.60;91.80
21944;DHT22;11136;48.778;9.126;2022-09-09T01:40:49;17.60;91.80
21944;DHT22;11136;48.778;9.126;2022-09-09T01:43:20;17.60;92.30
21944;DHT22;11136;48.778;9.126;2022-09-09T01:45:47;17.60;92.00
21944;DHT22;11136;48.778;9.126;2022-09-09T01:48:13;17.60;92.20
21944;DHT22;11136;48.778;9.126;2022-09-09T01:50:39;17.50;92.20
21944;DHT22;11136;48.778;9.126;2022-09-09T01:53:04;17.60;92.20
21944;DHT22;11136;48.778;9.126;2022-09-09T01:55:37;17.50;92.20
21944;DHT22;11136;48.778;9.126;2022-09-09T02:01:01;17.50;92.40
21944;DHT22;11136;48.778;9.126;2022-09-09T02:03:28;17.50;92.40
21944;DHT22;11136;48.778;9.126;2022-09-09T02:06:24;17.40;92.30
21944;DHT22;11136;48.778;9.126;2022-09-09T02:08:57;17.40;92.40
21944;DHT22;11136;48.778;9.126;2022-09-09T02:11:27;17.30;92.40
21944;DHT22;11136;48.778;9.126;2022-09-09T02:13:57;17.30;92.50
21944;DHT22;11136;48.778;9.126;2022-09-09T02:21:29;17.30;92.70
21944;DHT22;11136;48.778;9.126;2022-09-09T02:23:57;17.20;92.70
21944;DHT22;11136;48.778;9.126;2022-09-09T02:26:25;17.30;92.80
21944;DHT22;11136;48.778;9.126;2022-09-09T02:28:54;17.20;92.90
21944;DHT22;11136;48.778;9.126;2022-09-09T02:31:22;17.10;93.00
21944;DHT22;11136;48.778;9.126;2022-09-09T02:33:53;17.20;93.10
21944;DHT22;11136;48.778;9.126;2022-09-09T02:36:20;17.20;93.20
21944;DHT22;11136;48.778;9.126;2022-09-09T02:38:47;17.20;93.20
21944;DHT22;11136;48.778;9.126;2022-09-09T02:41:31;17.20;93.20
21944;DHT22;11136;48.778;9.126;2022-09-09T02:43:57;17.20;93.30
21944;DHT22;11136;48.778;9.126;2022-09-09T02:49:27;17.10;93.40
21944;DHT22;11136;48.778;9.126;2022-09-09T02:52:08;17.10;93.50
21944;DHT22;11136;48.778;9.126;2022-09-09T02:54:39;17.00;93.50
21944;DHT22;11136;48.778;9.126;2022-09-09T02:57:11;17.00;93.50
21944;DHT22;11136;48.778;9.126;2022-09-09T02:59:38;17.00;93.60
21944;DHT22;11136;48.778;9.126;2022-09-09T03:02:04;16.90;93.70
21944;DHT22;11136;48.778;9.126;2022-09-09T03:04:31;16.90;93.80
21944;DHT22;11136;48.778;9.126;2022-09-09T03:06:57;16.90;93.90
21944;DHT22;11136;48.778;9.126;2022-09-09T03:09:23;16.80;93.90
21944;DHT22;11136;48.778;9.126;2022-09-09T03:11:48;16.80;94.00
21944;DHT22;11136;48.778;9.126;2022-09-09T03:14:15;16.80;94.00
21944;DHT22;11136;48.778;9.126;2022-09-09T03:16:41;16.80;94.20
21944;DHT22;11136;48.778;9.126;2022-09-09T03:19:08;16.80;94.20
21944;DHT22;11136;48.778;9.126;2022-09-09T03:21:33;16.80;94.20
21944;DHT22;11136;48.778;9.126;2022-09-09T03:23:59;16.70;94.30
21944;DHT22;11136;48.778;9.126;2022-09-09T03:26:25;16.70;94.30
21944;DHT22;11136;48.778;9.126;2022-09-09T03:28:50;16.70;94.30
21944;DHT22;11136;48.778;9.126;2022-09-09T03:31:17;16.70;94.30
21944;DHT22;11136;48.778;9.126;2022-09-09T03:33:44;16.70;94.40
21944;DHT22;11136;48.778;9.126;2022-09-09T03:36:10;16.70;94.50
21944;DHT22;11136;48.778;9.126;2022-09-09T03:38:35;16.70;94.50
21944;DHT22;11136;48.778;9.126;2022-09-09T03:41:01;16.60;94.50
21944;DHT22;11136;48.778;9.126;2022-09-09T03:43:27;16.70;94.60
21944;DHT22;11136;48.778;9.126;2022-09-09T03:45:53;16.70;94.70
21944;DHT22;11136;48.778;9.126;2022-09-09T03:48:22;16.60;94.70
21944;DHT22;11136;48.778;9.126;2022-09-09T03:50:52;16.60;94.70
21944;DHT22;11136;48.778;9.126;2022-09-09T03:53:20;16.60;94.80
21944;DHT22;11136;48.778;9.126;2022-09-09T03:55:47;16.50;94.80
21944;DHT22;11136;48.778;9.126;2022-09-09T03:58:14;16.50;94.80
21944;DHT22;11136;48.778;9.126;2022-09-09T04:00:41;16.50;94.80
21944;DHT22;11136;48.778;9.126;2022-09-09T04:03:09;16.50;94.90
21944;DHT22;11136;48.778;9.126;2022-09-09T04:05:35;16.50;94.90
21944;DHT22;11136;48.778;9.126;2022-09-09T04:08:00;16.60;95.00
21944;DHT22;11136;48.778;9.126;2022-09-09T04:10:26;16.60;95.00
21944;DHT22;11136;48.778;9.126;2022-09-09T04:12:52;16.60;95.00
21944;DHT22;11136;48.778;9.126;2022-09-09T04:15:17;16.70;95.00
21944;DHT22;11136;48.778;9.126;2022-09-09T04:17:44;16.60;95.00
21944;DHT22;11136;48.778;9.126;2022-09-09T04:20:09;16.60;95.00
21944;DHT22;11136;48.778;9.126;2022-09-09T04:22:37;16.70;95.00
21944;DHT22;11136;48.778;9.126;2022-09-09T04:25:05;16.70;95.10
21944;DHT22;11136;48.778;9.126;2022-09-09T04:27:31;16.70;95.10
21944;DHT22;11136;48.778;9.126;2022-09-09T04:29:57;16.70;95.20
21944;DHT22;11136;48.778;9.126;2022-09-09T04:32:22;16.80;95.20
21944;DHT22;11136;48.778;9.126;2022-09-09T04:34:48;16.80;95.20
21944;DHT22;11136;48.778;9.126;2022-09-09T04:37:14;16.80;95.20
21944;DHT22;11136;48.778;9.126;2022-09-09T04:39:39;16.80;95.20
21944;DHT22;11136;48.778;9.126;2022-09-09T04:42:05;16.80;95.30
21944;DHT22;11136;48.778;9.126;2022-09-09T04:44:30;16.90;95.30
21944;DHT22;11136;48.778;9.126;2022-09-09T04:46:56;16.80;95.40
21944;DHT22;11136;48.778;9.126;2022-09-09T04:49:22;16.80;95.50
21944;DHT22;11136;48.778;9.126;2022-09-09T04:51:49;16.70;95.50
21944;DHT22;11136;48.778;9.126;2022-09-09T04:54:14;16.70;95.70
21944;DHT22;11136;48.778;9.126;2022-09-09T04:56:40;16.70;95.50
21944;DHT22;11136;48.778;9.126;2022-09-09T04:59:07;16.70;95.60
21944;DHT22;11136;48.778;9.126;2022-09-09T05:01:33;16.60;95.60
21944;DHT22;11136;48.778;9.126;2022-09-09T05:03:58;16.60;96.00
21944;DHT22;11136;48.778;9.126;2022-09-09T05:06:24;16.60;95.70
21944;DHT22;11136;48.778;9.126;2022-09-09T05:08:51;16.50;95.80
21944;DHT22;11136;48.778;9.126;2022-09-09T05:11:22;16.50;95.80
21944;DHT22;11136;48.778;9.126;2022-09-09T05:13:50;16.50;95.90
21944;DHT22;11136;48.778;9.126;2022-09-09T05:16:16;16.50;96.00
21944;DHT22;11136;48.778;9.126;2022-09-09T05:18:42;16.50;96.00
21944;DHT22;11136;48.778;9.126;2022-09-09T05:21:09;16.50;96.10
21944;DHT22;11136;48.778;9.126;2022-09-09T05:23:35;16.50;96.10
21944;DHT22;11136;48.778;9.126;2022-09-09T05:26:01;16.50;96.20
21944;DHT22;11136;48.778;9.126;2022-09-09T05:28:28;16.60;96.20
21944;DHT22;11136;48.778;9.126;2022-09-09T05:31:01;16.60;96.20
21944;DHT22;11136;48.778;9.126;2022-09-09T05:33:29;16.60;96.50
21944;DHT22;11136;48.778;9.126;2022-09-09T05:36:03;16.60;96.20
21944;DHT22;11136;48.778;9.126;2022-09-09T05:38:30;16.70;96.20
21944;DHT22;11136;48.778;9.126;2022-09-09T05:40:57;16.70;96.10
21944;DHT22;11136;48.778;9.126;2022-09-09T05:43:23;16.70;96.10
21944;DHT22;11136;48.778;9.126;2022-09-09T05:46:00;16.70;96.10
21944;DHT22;11136;48.778;9.126;2022-09-09T05:48:34;16.80;96.10
21944;DHT22;11136;48.778;9.126;2022-09-09T05:51:00;16.80;96.10
21944;DHT22;11136;48.778;9.126;2022-09-09T05:53:26;16.80;96.10
21944;DHT22;11136;48.778;9.126;2022-09-09T05:56:00;16.90;96.10
21944;DHT22;11136;48.778;9.126;2022-09-09T05:58:27;16.90;96.00
21944;DHT22;11136;48.778;9.126;2022-09-09T06:00:52;16.90;96.00
21944;DHT22;11136;48.778;9.126;2022-09-09T06:03:19;16.90;96.00
21944;DHT22;11136;48.778;9.126;2022-09-09T06:05:57;16.90;96.00
21944;DHT22;11136;48.778;9.126;2022-09-09T06:08:22;17.00;96.00
21944;DHT22;11136;48.778;9.126;2022-09-09T06:10:48;17.00;95.90
21944;DHT22;11136;48.778;9.126;2022-09-09T06:13:14;17.00;95.90
21944;DHT22;11136;48.778;9.126;2022-09-09T06:15:39;17.10;95.90
21944;DHT22;11136;48.778;9.126;2022-09-09T06:18:05;17.10;95.90
21944;DHT22;11136;48.778;9.126;2022-09-09T06:20:31;17.10;95.90
21944;DHT22;11136;48.778;9.126;2022-09-09T06:22:57;17.00;95.90
21944;DHT22;11136;48.778;9.126;2022-09-09T06:25:22;17.10;96.00
21944;DHT22;11136;48.778;9.126;2022-09-09T06:27:49;17.20;95.90
21944;DHT22;11136;48.778;9.126;2022-09-09T06:30:15;17.20;95.90
21944;DHT22;11136;48.778;9.126;2022-09-09T06:32:42;17.20;95.90
21944;DHT22;11136;48.778;9.126;2022-09-09T06:35:08;17.20;95.90
21944;DHT22;11136;48.778;9.126;2022-09-09T06:37:33;17.30;96.00
21944;DHT22;11136;48.778;9.126;2022-09-09T06:39:59;17.30;96.00
21944;DHT22;11136;48.778;9.126;2022-09-09T06:42:24;17.30;96.10
21944;DHT22;11136;48.778;9.126;2022-09-09T06:44:50;17.30;96.10
21944;DHT22;11136;48.778;9.126;2022-09-09T06:47:16;17.30;96.00
21944;DHT22;11136;48.778;9.126;2022-09-09T06:49:41;17.40;96.10
21944;DHT22;11136;48.778;9.126;2022-09-09T06:52:08;17.40;96.10
21944;DHT22;11136;48.778;9.126;2022-09-09T06:54:34;17.40;96.10
21944;DHT22;11136;48.778;9.126;2022-09-09T06:57:02;17.40;96.10
21944;DHT22;11136;48.778;9.126;2022-09-09T06:59:28;17.50;96.10
21944;DHT22;11136;48.778;9.126;2022-09-09T07:01:56;17.50;96.10
21944;DHT22;11136;48.778;9.126;2022-09-09T07:04:22;17.60;96.10
21944;DHT22;11136;48.778;9.126;2022-09-09T07:06:47;17.60;96.00
21944;DHT22;11136;48.778;9.126;2022-09-09T07:09:14;17.60;96.00
21944;DHT22;11136;48.778;9.126;2022-09-09T07:11:47;17.60;96.00
21944;DHT22;11136;48.778;9.126;2022-09-09T07:14:13;17.70;96.10
21944;DHT22;11136;48.778;9.126;2022-09-09T07:16:43;17.70;96.00
21944;DHT22;11136;48.778;9.126;2022-09-09T07:19:09;17.70;96.00
21944;DHT22;11136;48.778;9.126;2022-09-09T07:21:35;17.70;96.10
21944;DHT22;11136;48.778;9.126;2022-09-09T07:24:01;17.80;96.10
21944;DHT22;11136;48.778;9.126;2022-09-09T07:26:29;17.80;96.10
21944;DHT22;11136;48.778;9.126;2022-09-09T07:28:55;17.90;96.10
21944;DHT22;11136;48.778;9.126;2022-09-09T07:31:30;17.90;96.10
21944;DHT22;11136;48.778;9.126;2022-09-09T07:33:57;18.00;96.20
21944;DHT22;11136;48.778;9.126;2022-09-09T07:36:25;18.00;96.20
21944;DHT22;11136;48.778;9.126;2022-09-09T07:38:55;18.10;96.20
21944;DHT22;11136;48.778;9.126;2022-09-09T07:41:24;18.20;96.20
21944;DHT22;11136;48.778;9.126;2022-09-09T07:43:50;18.40;96.20
21944;DHT22;11136;48.778;9.126;2022-09-09T07:46:18;18.50;96.00
21944;DHT22;11136;48.778;9.126;2022-09-09T07:48:49;18.60;95.90
21944;DHT22;11136;48.778;9.126;2022-09-09T07:51:23;18.70;95.70
21944;DHT22;11136;48.778;9.126;2022-09-09T07:53:52;18.90;95.80
21944;DHT22;11136;48.778;9.126;2022-09-09T07:56:18;19.30;96.00
21944;DHT22;11136;48.778;9.126;2022-09-09T07:58:47;19.90;95.90
21944;DHT22;11136;48.778;9.126;2022-09-09T08:01:18;20.40;95.20
21944;DHT22;11136;48.778;9.126;2022-09-09T08:03:45;20.80;94.70
21944;DHT22;11136;48.778;9.126;2022-09-09T08:06:11;21.20;94.00
21944;DHT22;11136;48.778;9.126;2022-09-09T08:08:38;21.40;93.40
21944;DHT22;11136;48.778;9.126;2022-09-09T08:11:13;21.50;92.10
21944;DHT22;11136;48.778;9.126;2022-09-09T08:13:40;21.40;91.90
21944;DHT22;11136;48.778;9.126;2022-09-09T08:16:07;21.30;91.40
21944;DHT22;11136;48.778;9.126;2022-09-09T08:18:33;21.10;90.90
21944;DHT22;11136;48.778;9.126;2022-09-09T08:21:05;20.80;90.90
21944;DHT22;11136;48.778;9.126;2022-09-09T08:23:30;20.70;91.10
21944;DHT22;11136;48.778;9.126;2022-09-09T08:26:03;20.50;91.30
21944;DHT22;11136;48.778;9.126;2022-09-09T08:28:29;20.30;91.40
21944;DHT22;11136;48.778;9.126;2022-09-09T08:30:56;20.30;91.70
21944;DHT22;11136;48.778;9.126;2022-09-09T08:33:29;20.40;91.80
21944;DHT22;11136;48.778;9.126;2022-09-09T08:35:55;20.40;91.80
21944;DHT22;11136;48.778;9.126;2022-09-09T08:38:20;20.50;91.60
21944;DHT22;11136;48.778;9.126;2022-09-09T08:40:49;20.70;91.70
21944;DHT22;11136;48.778;9.126;2022-09-09T08:43:16;20.90;91.40
21944;DHT22;11136;48.778;9.126;2022-09-09T08:45:54;21.20;90.80
21944;DHT22;11136;48.778;9.126;2022-09-09T08:48:47;21.50;90.70
21944;DHT22;11136;48.778;9.126;2022-09-09T08:51:15;21.90;90.40
21944;DHT22;11136;48.778;9.126;2022-09-09T08:53:48;22.30;90.20
21944;DHT22;11136;48.778;9.126;2022-09-09T08:56:21;22.60;87.90
21944;DHT22;11136;48.778;9.126;2022-09-09T08:58:51;22.80;87.40
21944;DHT22;11136;48.778;9.126;2022-09-09T09:12:26;23.30;79.20
21944;DHT22;11136;48.778;9.126;2022-09-09T09:14:54;23.00;79.10
21944;DHT22;11136;48.778;9.126;2022-09-09T09:17:23;22.80;78.90
21944;DHT22;11136;48.778;9.126;2022-09-09T09:19:50;22.50;79.90
21944;DHT22;11136;48.778;9.126;2022-09-09T09:22:23;22.20;83.00
21944;DHT22;11136;48.778;9.126;2022-09-09T09:27:46;21.60;84.20
21944;DHT22;11136;48.778;9.126;2022-09-09T09:32:47;21.10;85.70
21944;DHT22;11136;48.778;9.126;2022-09-09T09:35:14;20.90;86.70
21944;DHT22;11136;48.778;9.126;2022-09-09T09:37:41;20.70;86.50
21944;DHT22;11136;48.778;9.126;2022-09-09T09:40:19;20.50;85.20
21944;DHT22;11136;48.778;9.126;2022-09-09T09:42:53;20.40;85.40
21944;DHT22;11136;48.778;9.126;2022-09-09T09:45:41;20.40;86.00
21944;DHT22;11136;48.778;9.126;2022-09-09T09:48:10;20.50;86.50
21944;DHT22;11136;48.778;9.126;2022-09-09T09:50:47;20.70;85.60
21944;DHT22;11136;48.778;9.126;2022-09-09T09:53:33;20.80;85.40
21944;DHT22;11136;48.778;9.126;2022-09-09T09:56:01;21.00;85.00
21944;DHT22;11136;48.778;9.126;2022-09-09T09:58:31;21.20;84.00
21944;DHT22;11136;48.778;9.126;2022-09-09T10:01:00;21.70;84.20
21944;DHT22;11136;48.778;9.126;2022-09-09T10:03:31;21.60;83.70
21944;DHT22;11136;48.778;9.126;2022-09-09T10:05:57;21.70;82.90
21944;DHT22;11136;48.778;9.126;2022-09-09T10:08:27;21.90;83.30
21944;DHT22;11136;48.778;9.126;2022-09-09T10:11:13;22.00;82.90
21944;DHT22;11136;48.778;9.126;2022-09-09T10:19:18;22.30;81.20
21944;DHT22;11136;48.778;9.126;2022-09-09T10:22:23;22.40;80.10
21944;DHT22;11136;48.778;9.126;2022-09-09T10:27:54;22.60;79.20
21944;DHT22;11136;48.778;9.126;2022-09-09T10:30:42;22.70;78.90
21944;DHT22;11136;48.778;9.126;2022-09-09T10:33:28;22.70;78.10
21944;DHT22;11136;48.778;9.126;2022-09-09T10:36:36;22.70;78.10
21944;DHT22;11136;48.778;9.126;2022-09-09T10:44:33;22.80;76.20
21944;DHT22;11136;48.778;9.126;2022-09-09T10:50:08;23.00;76.10
21944;DHT22;11136;48.778;9.126;2022-09-09T10:57:50;23.10;74.00
21944;DHT22;11136;48.778;9.126;2022-09-09T11:00:27;23.00;73.70
21944;DHT22;11136;48.778;9.126;2022-09-09T11:03:04;23.10;75.20
21944;DHT22;11136;48.778;9.126;2022-09-09T11:05:55;23.20;75.70
21944;DHT22;11136;48.778;9.126;2022-09-09T11:08:26;23.30;74.90
21944;DHT22;11136;48.778;9.126;2022-09-09T11:11:07;23.30;74.20
21944;DHT22;11136;48.778;9.126;2022-09-09T11:13:58;23.10;73.00
21944;DHT22;11136;48.778;9.126;2022-09-09T11:16:34;23.00;73.00
21944;DHT22;11136;48.778;9.126;2022-09-09T11:19:33;22.90;73.20
21944;DHT22;11136;48.778;9.126;2022-09-09T11:22:02;22.80;72.80
21944;DHT22;11136;48.778;9.126;2022-09-09T11:24:37;22.70;71.80
21944;DHT22;11136;48.778;9.126;2022-09-09T11:27:17;22.60;70.90
21944;DHT22;11136;48.778;9.126;2022-09-09T11:30:24;22.60;70.80
21944;DHT22;11136;48.778;9.126;2022-09-09T11:35:57;22.50;72.30
21944;DHT22;11136;48.778;9.126;2022-09-09T11:41:05;22.20;74.90
21944;DHT22;11136;48.778;9.126;2022-09-09T11:43:42;22.10;75.40
21944;DHT22;11136;48.778;9.126;2022-09-09T11:46:08;22.10;75.70
21944;DHT22;11136;48.778;9.126;2022-09-09T11:48:40;21.90;75.90
21944;DHT22;11136;48.778;9.126;2022-09-09T11:51:12;21.50;76.30
21944;DHT22;11136;48.778;9.126;2022-09-09T11:53:53;21.70;77.10
21944;DHT22;11136;48.778;9.126;2022-09-09T11:56:45;21.70;77.40
21944;DHT22;11136;48.778;9.126;2022-09-09T11:59:25;21.80;77.40
21944;DHT22;11136;48.778;9.126;2022-09-09T12:02:01;21.80;76.40
21944;DHT22;11136;48.778;9.126;2022-09-09T12:04:50;21.90;76.40
21944;DHT22;11136;48.778;9.126;2022-09-09T12:07:32;21.90;76.30
21944;DHT22;11136;48.778;9.126;2022-09-09T12:12:35;22.00;76.50
21944;DHT22;11136;48.778;9.126;2022-09-09T12:17:48;22.20;74.70
21944;DHT22;11136;48.778;9.126;2022-09-09T12:28:19;22.50;72.20
21944;DHT22;11136;48.778;9.126;2022-09-09T12:33:37;22.70;71.90
21944;DHT22;11136;48.778;9.126;2022-09-09T12:36:11;22.80;71.40
21944;DHT22;11136;48.778;9.126;2022-09-09T12:38:40;22.90;70.80
21944;DHT22;11136;48.778;9.126;2022-09-09T12:41:21;22.90;72.70
21944;DHT22;11136;48.778;9.126;2022-09-09T12:43:47;22.80;70.30
21944;DHT22;11136;48.778;9.126;2022-09-09T12:46:27;22.70;70.80
21944;DHT22;11136;48.778;9.126;2022-09-09T12:48:55;22.60;70.50
21944;DHT22;11136;48.778;9.126;2022-09-09T12:51:30;22.50;70.60
21944;DHT22;11136;48.778;9.126;2022-09-09T12:53:56;22.50;71.50
21944;DHT22;11136;48.778;9.126;2022-09-09T12:56:26;22.60;72.50
21944;DHT22;11136;48.778;9.126;2022-09-09T12:58:54;22.80;73.00
21944;DHT22;11136;48.778;9.126;2022-09-09T13:01:24;22.90;73.90
21944;DHT22;11136;48.778;9.126;2022-09-09T13:03:50;23.10;72.00
21944;DHT22;11136;48.778;9.126;2022-09-09T13:06:30;23.40;71.30
21944;DHT22;11136;48.778;9.126;2022-09-09T13:08:59;23.70;71.10
21944;DHT22;11136;48.778;9.126;2022-09-09T13:13:56;24.00;69.10
21944;DHT22;11136;48.778;9.126;2022-09-09T13:16:32;24.40;70.50
21944;DHT22;11136;48.778;9.126;2022-09-09T13:19:14;24.90;69.00
21944;DHT22;11136;48.778;9.126;2022-09-09T13:21:41;25.10;66.40
21944;DHT22;11136;48.778;9.126;2022-09-09T13:24:29;25.10;66.20
21944;DHT22;11136;48.778;9.126;2022-09-09T13:27:03;25.20;65.60
21944;DHT22;11136;48.778;9.126;2022-09-09T13:29:31;25.50;66.20
21944;DHT22;11136;48.778;9.126;2022-09-09T13:32:15;26.40;66.10
21944;DHT22;11136;48.778;9.126;2022-09-09T13:34:51;27.20;61.10
21944;DHT22;11136;48.778;9.126;2022-09-09T13:39:55;29.00;58.50
21944;DHT22;11136;48.778;9.126;2022-09-09T13:42:29;29.70;56.20
21944;DHT22;11136;48.778;9.126;2022-09-09T13:44:56;29.70;53.60
21944;DHT22;11136;48.778;9.126;2022-09-09T13:47:30;29.20;52.90
21944;DHT22;11136;48.778;9.126;2022-09-09T13:49:56;28.50;52.80
21944;DHT22;11136;48.778;9.126;2022-09-09T13:52:22;27.80;53.60
21944;DHT22;11136;48.778;9.126;2022-09-09T13:54:49;27.20;54.30
21944;DHT22;11136;48.778;9.126;2022-09-09T13:57:18;26.70;54.70
21944;DHT22;11136;48.778;9.126;2022-09-09T13:59:48;26.90;56.00
21944;DHT22;11136;48.778;9.126;2022-09-09T14:02:14;27.80;55.80
21944;DHT22;11136;48.778;9.126;2022-09-09T14:04:42;28.80;54.20
21944;DHT22;11136;48.778;9.126;2022-09-09T14:07:18;29.80;53.10
21944;DHT22;11136;48.778;9.126;2022-09-09T14:09:44;30.80;50.20
21944;DHT22;11136;48.778;9.126;2022-09-09T14:12:14;31.30;48.60
21944;DHT22;11136;48.778;9.126;2022-09-09T14:14:41;31.80;47.70
21944;DHT22;11136;48.778;9.126;2022-09-09T14:17:10;32.20;47.60
21944;DHT22;11136;48.778;9.126;2022-09-09T14:19:36;32.20;47.30
21944;DHT22;11136;48.778;9.126;2022-09-09T14:22:02;31.90;47.00
21944;DHT22;11136;48.778;9.126;2022-09-09T14:24:28;31.20;47.40
21944;DHT22;11136;48.778;9.126;2022-09-09T14:26:55;30.70;47.80
21944;DHT22;11136;48.778;9.126;2022-09-09T14:29:20;30.20;48.00
21944;DHT22;11136;48.778;9.126;2022-09-09T14:31:46;29.40;48.00
21944;DHT22;11136;48.778;9.126;2022-09-09T14:34:12;29.00;49.70
21944;DHT22;11136;48.778;9.126;2022-09-09T14:36:39;29.60;50.30
21944;DHT22;11136;48.778;9.126;2022-09-09T14:39:05;30.10;49.00
21944;DHT22;11136;48.778;9.126;2022-09-09T14:41:31;29.80;48.70
21944;DHT22;11136;48.778;9.126;2022-09-09T14:43:57;29.60;48.80
21944;DHT22;11136;48.778;9.126;2022-09-09T14:46:22;29.50;48.80
21944;DHT22;11136;48.778;9.126;2022-09-09T14:48:49;29.80;49.10
21944;DHT22;11136;48.778;9.126;2022-09-09T14:51:24;29.70;49.00
21944;DHT22;11136;48.778;9.126;2022-09-09T14:53:56;30.00;48.80
21944;DHT22;11136;48.778;9.126;2022-09-09T14:56:24;29.70;48.50
21944;DHT22;11136;48.778;9.126;2022-09-09T14:58:53;29.90;49.10
21944;DHT22;11136;48.778;9.126;2022-09-09T15:01:19;30.50;47.90
21944;DHT22;11136;48.778;9.126;2022-09-09T15:03:53;31.10;47.10
21944;DHT22;11136;48.778;9.126;2022-09-09T15:06:20;31.50;45.80
21944;DHT22;11136;48.778;9.126;2022-09-09T15:08:46;31.50;45.20
21944;DHT22;11136;48.778;9.126;2022-09-09T15:11:13;31.10;45.30
21944;DHT22;11136;48.778;9.126;2022-09-09T15:13:40;30.50;45.60
21944;DHT22;11136;48.778;9.126;2022-09-09T15:16:10;29.90;46.20
21944;DHT22;11136;48.778;9.126;2022-09-09T15:18:37;29.40;46.90
21944;DHT22;11136;48.778;9.126;2022-09-09T15:21:09;28.70;47.30
21944;DHT22;11136;48.778;9.126;2022-09-09T15:23:35;28.20;48.10
21944;DHT22;11136;48.778;9.126;2022-09-09T15:26:02;27.70;48.80
21944;DHT22;11136;48.778;9.126;2022-09-09T15:28:27;27.20;49.50
21944;DHT22;11136;48.778;9.126;2022-09-09T15:30:54;26.90;50.30
21944;DHT22;11136;48.778;9.126;2022-09-09T15:33:20;26.60;51.00
21944;DHT22;11136;48.778;9.126;2022-09-09T15:35:46;26.40;51.70
21944;DHT22;11136;48.778;9.126;2022-09-09T15:38:12;26.30;52.10
21944;DHT22;11136;48.778;9.126;2022-09-09T15:40:41;26.20;52.50
21944;DHT22;11136;48.778;9.126;2022-09-09T15:43:07;26.00;52.70
21944;DHT22;11136;48.778;9.126;2022-09-09T15:45:35;25.80;52.90
21944;DHT22;11136;48.778;9.126;2022-09-09T15:48:01;25.60;53.30
21944;DHT22;11136;48.778;9.126;2022-09-09T15:50:26;25.50;53.70
21944;DHT22;11136;48.778;9.126;2022-09-09T15:52:52;25.30;54.00
21944;DHT22;11136;48.778;9.126;2022-09-09T15:55:19;25.20;54.30
21944;DHT22;11136;48.778;9.126;2022-09-09T15:57:45;25.10;54.50
21944;DHT22;11136;48.778;9.126;2022-09-09T16:00:12;25.00;54.90
21944;DHT22;11136;48.778;9.126;2022-09-09T16:02:38;24.80;55.20
21944;DHT22;11136;48.778;9.126;2022-09-09T16:05:04;24.70;55.60
21944;DHT22;11136;48.778;9.126;2022-09-09T16:07:30;24.60;55.80
21944;DHT22;11136;48.778;9.126;2022-09-09T16:09:56;24.60;56.10
21944;DHT22;11136;48.778;9.126;2022-09-09T16:12:21;24.50;56.30
21944;DHT22;11136;48.778;9.126;2022-09-09T16:14:47;24.40;56.40
21944;DHT22;11136;48.778;9.126;2022-09-09T16:17:12;24.40;56.40
21944;DHT22;11136;48.778;9.126;2022-09-09T16:19:39;24.30;56.40
21944;DHT22;11136;48.778;9.126;2022-09-09T16:22:05;24.20;56.60
21944;DHT22;11136;48.778;9.126;2022-09-09T16:24:32;24.20;56.90
21944;DHT22;11136;48.778;9.126;2022-09-09T16:26:58;24.00;57.20
21944;DHT22;11136;48.778;9.126;2022-09-09T16:29:24;24.00;57.60
21944;DHT22;11136;48.778;9.126;2022-09-09T16:31:53;23.90;57.80
21944;DHT22;11136;48.778;9.126;2022-09-09T16:34:19;23.90;58.10
21944;DHT22;11136;48.778;9.126;2022-09-09T16:36:46;23.90;58.40
21944;DHT22;11136;48.778;9.126;2022-09-09T16:39:14;23.80;58.60
21944;DHT22;11136;48.778;9.126;2022-09-09T16:41:41;23.70;58.70
21944;DHT22;11136;48.778;9.126;2022-09-09T16:44:09;23.60;58.90
21944;DHT22;11136;48.778;9.126;2022-09-09T16:46:38;23.50;59.00
21944;DHT22;11136;48.778;9.126;2022-09-09T16:49:06;23.60;59.20
21944;DHT22;11136;48.778;9.126;2022-09-09T16:51:35;23.30;60.10
21944;DHT22;11136;48.778;9.126;2022-09-09T16:54:04;23.10;61.70
21944;DHT22;11136;48.778;9.126;2022-09-09T16:56:33;23.00;62.70
21944;DHT22;11136;48.778;9.126;2022-09-09T16:59:01;22.80;63.30
21944;DHT22;11136;48.778;9.126;2022-09-09T17:01:33;22.80;64.80
21944;DHT22;11136;48.778;9.126;2022-09-09T17:04:01;22.70;65.80
21944;DHT22;11136;48.778;9.126;2022-09-09T17:06:29;22.60;65.20
21944;DHT22;11136;48.778;9.126;2022-09-09T17:08:56;22.60;64.70
21944;DHT22;11136;48.778;9.126;2022-09-09T17:11:22;22.40;64.50
21944;DHT22;11136;48.778;9.126;2022-09-09T17:13:49;22.30;64.50
21944;DHT22;11136;48.778;9.126;2022-09-09T17:16:18;22.20;65.00
21944;DHT22;11136;48.778;9.126;2022-09-09T17:18:44;22.10;65.40
21944;DHT22;11136;48.778;9.126;2022-09-09T17:21:17;22.00;65.40